Humboldt Bay — A8OL4 — position and weather

sailwx.info

Track history (hours):
 
Tides and Currents Weather Stations Pressure Air Temp Water Temp Dewpoint Dewpoint Depression Visibility Wind Speed Wind Dir Waves Ship Positions

Humboldt Bay

Last reported at 2017-May-03 22:37 UTC. Time now 2017-May-25 12:23 UTC.
Position N 27°51' W 015°14'.
Warning: this ship's position is 21 days out of date.

Length 147 m; draft 8.8 m.

Type: Cargo ship. MMSI: 636013649.

Date/timePositionNaut miles runAvg speedWind from/ knotsBaromVisibWave heightAir tempDewpointWater temp
2017-May-03 22:37N 27°51' W 015°14'215.3
2017-May-03 22:30N 27°52' W 015°14'815.1
2017-May-03 22:00N 27°60' W 015°14'714.1
2017-May-03 21:30N 28°06' W 015°18'2 4.8
2017-May-03 21:00N 28°08' W 015°20'0 0.6
2017-May-03 20:30N 28°08' W 015°20'1 1.7
2017-May-03 20:00N 28°09' W 015°19'5 9.7
2017-May-03 19:30N 28°13' W 015°16'612.1
2017-May-03 19:00N 28°18' W 015°13'714.2
2017-May-03 18:30N 28°23' W 015°08'714.5
2017-May-03 18:00N 28°29' W 015°03'714.7
2017-May-03 17:30N 28°37' W 015°02'714.6
2017-May-03 17:00N 28°44' W 015°02'714.2
2017-May-03 16:30N 28°51' W 015°01'714.1
2017-May-03 16:00N 28°58' W 015°01'914.2
2017-May-03 15:21N 29°07' W 015°00'614.2
2017-May-03 14:55N 29°13' W 014°60'4214.5
2017-May-03 12:00N 29°56' W 015°00'  
2017-Apr-28 18:24N 54°23' W 011°16'30014.5
2017-Apr-27 21:42N 59°09' W 008°30'314.9
2017-Apr-27 21:30N 59°12' W 008°28'1214.6
2017-Apr-27 20:40N 59°23' W 008°20'314.9
2017-Apr-27 20:29N 59°26' W 008°19'3914.6
2017-Apr-27 17:50N 60°03' W 007°58'1114.2
2017-Apr-27 17:02N 60°12' W 007°44'113.6
2017-Apr-27 16:59N 60°12' W 007°43'1113.5
2017-Apr-27 16:12N 60°21' W 007°31'314.2
2017-Apr-27 16:00N 60°24' W 007°28'  
Track history (hours):
 
Tides and Currents Weather Stations Pressure Air Temp Water Temp Dewpoint Dewpoint Depression Visibility Wind Speed Wind Dir Waves Ship Positions

Humboldt Bay

Last reported at 2017-May-03 22:37 UTC. Time now 2017-May-25 12:23 UTC.
Position N 27°51' W 015°14'.
Warning: this ship's position is 21 days out of date.

Length 147 m; draft 8.8 m.

Type: Cargo ship. MMSI: 636013649.

Date/timePositionNaut miles runAvg speedWind from/ knotsBaromVisibWave heightAir tempDewpointWater temp
2017-May-03 22:37N 27°51' W 015°14'215.3
2017-May-03 22:30N 27°52' W 015°14'815.1
2017-May-03 22:00N 27°60' W 015°14'714.1
2017-May-03 21:30N 28°06' W 015°18'2 4.8
2017-May-03 21:00N 28°08' W 015°20'0 0.6
2017-May-03 20:30N 28°08' W 015°20'1 1.7
2017-May-03 20:00N 28°09' W 015°19'5 9.7
2017-May-03 19:30N 28°13' W 015°16'612.1
2017-May-03 19:00N 28°18' W 015°13'714.2
2017-May-03 18:30N 28°23' W 015°08'714.5
2017-May-03 18:00N 28°29' W 015°03'714.7
2017-May-03 17:30N 28°37' W 015°02'714.6
2017-May-03 17:00N 28°44' W 015°02'714.2
2017-May-03 16:30N 28°51' W 015°01'714.1
2017-May-03 16:00N 28°58' W 015°01'914.2
2017-May-03 15:21N 29°07' W 015°00'614.2
2017-May-03 14:55N 29°13' W 014°60'4214.5
2017-May-03 12:00N 29°56' W 015°00'  
2017-Apr-28 18:24N 54°23' W 011°16'30014.5
2017-Apr-27 21:42N 59°09' W 008°30'314.9
2017-Apr-27 21:30N 59°12' W 008°28'1214.6
2017-Apr-27 20:40N 59°23' W 008°20'314.9
2017-Apr-27 20:29N 59°26' W 008°19'3914.6
2017-Apr-27 17:50N 60°03' W 007°58'1114.2
2017-Apr-27 17:02N 60°12' W 007°44'113.6
2017-Apr-27 16:59N 60°12' W 007°43'1113.5
2017-Apr-27 16:12N 60°21' W 007°31'314.2
2017-Apr-27 16:00N 60°24' W 007°28'  

Dump ship's entire track history